createdAt,value
2019-04-04T00:02:21.255Z,23.70
2019-04-04T00:04:52.509Z,20.70
2019-04-04T00:07:23.356Z,18.80
2019-04-04T00:09:53.858Z,20.60
2019-04-04T00:12:24.159Z,20.27
2019-04-04T00:14:54.460Z,22.15
2019-04-04T00:17:24.740Z,20.95
2019-04-04T00:19:55.144Z,22.22
2019-04-04T00:22:25.457Z,23.20
2019-04-04T00:24:56.039Z,23.18
2019-04-04T00:27:27.414Z,22.90
2019-04-04T00:29:57.873Z,20.30
2019-04-04T00:32:28.115Z,21.10
2019-04-04T00:34:59.791Z,21.75
2019-04-04T00:37:30.779Z,21.75
2019-04-04T00:40:02.212Z,21.73
2019-04-04T00:42:32.601Z,22.37
2019-04-04T00:45:02.789Z,18.48
2019-04-04T00:47:33.295Z,20.85
2019-04-04T00:50:05.891Z,20.40
2019-04-04T00:52:35.832Z,19.52
2019-04-04T00:55:06.603Z,18.65
2019-04-04T00:57:36.854Z,23.15
2019-04-04T01:00:07.579Z,22.13
2019-04-04T01:02:37.854Z,19.75
2019-04-04T01:05:08.579Z,22.32
2019-04-04T01:07:38.776Z,23.07
2019-04-04T01:10:09.288Z,21.55
2019-04-04T01:12:39.513Z,23.40
2019-04-04T01:15:10.023Z,22.32
2019-04-04T01:17:40.381Z,19.65
2019-04-04T01:20:11.072Z,20.85
2019-04-04T01:22:41.826Z,21.30
2019-04-04T01:25:12.436Z,23.85
2019-04-04T01:27:46.217Z,23.80
2019-04-04T01:30:16.973Z,23.85
2019-04-04T01:32:48.235Z,22.58
2019-04-04T01:35:22.506Z,22.40
2019-04-04T01:37:51.097Z,23.90
2019-04-04T01:40:21.369Z,21.25
2019-04-04T01:42:51.569Z,21.52
2019-04-04T01:45:21.946Z,22.85
2019-04-04T01:47:52.199Z,21.93
2019-04-04T01:50:23.373Z,21.75
2019-04-04T01:52:53.677Z,24.07
2019-04-04T01:55:24.069Z,25.40
2019-04-04T01:57:54.367Z,25.12
2019-04-04T02:00:24.838Z,22.22
2019-04-04T02:02:55.310Z,23.57
2019-04-04T02:05:26.973Z,22.65
2019-04-04T02:08:00.986Z,26.17
2019-04-04T02:10:31.313Z,27.22
2019-04-04T02:13:01.640Z,28.52
2019-04-04T02:15:31.849Z,27.17
2019-04-04T02:18:02.083Z,25.27
2019-04-04T02:20:32.409Z,25.88
2019-04-04T02:23:02.855Z,25.10
2019-04-04T02:25:34.077Z,26.23
2019-04-04T02:28:06.899Z,30.17
2019-04-04T02:30:37.297Z,30.35
2019-04-04T02:33:07.721Z,27.60
2019-04-04T02:35:38.205Z,25.45
2019-04-04T02:38:08.615Z,29.42
2019-04-04T02:40:41.973Z,26.65
2019-04-04T02:43:11.494Z,30.85
2019-04-04T02:45:42.717Z,27.73
2019-04-04T02:48:13.055Z,31.40
2019-04-04T02:50:43.405Z,29.63
2019-04-04T02:53:13.751Z,28.65
2019-04-04T02:55:44.079Z,31.80
2019-04-04T02:58:15.408Z,28.62
2019-04-04T03:00:45.909Z,32.63
2019-04-04T03:03:16.210Z,31.85
2019-04-04T03:05:50.758Z,31.42
2019-04-04T03:08:18.526Z,32.33
2019-04-04T03:10:49.470Z,30.80
2019-04-04T03:13:20.068Z,30.02
2019-04-04T03:15:50.613Z,30.65
2019-04-04T03:18:21.175Z,31.25
2019-04-04T03:20:51.561Z,31.57
2019-04-04T03:23:22.032Z,34.33
2019-04-04T03:25:52.708Z,30.90
2019-04-04T03:28:23.062Z,27.17
2019-04-04T03:31:01.831Z,27.35
2019-04-04T03:33:31.283Z,25.23
2019-04-04T03:36:00.975Z,26.27
2019-04-04T03:38:30.643Z,26.35
2019-04-04T03:41:00.895Z,24.82
2019-04-04T03:43:31.256Z,24.85
2019-04-04T03:46:02.625Z,27.87
2019-04-04T03:48:33.034Z,28.15
2019-04-04T03:51:04.687Z,27.20
2019-04-04T03:53:36.539Z,30.45
2019-04-04T03:56:06.895Z,29.63
2019-04-04T03:58:37.601Z,30.60
2019-04-04T04:01:11.967Z,31.02
2019-04-04T04:03:40.649Z,28.55
2019-04-04T04:06:10.979Z,30.08
2019-04-04T04:08:45.784Z,30.27
2019-04-04T04:11:16.334Z,29.55
2019-04-04T04:13:49.857Z,31.80
2019-04-04T04:16:19.986Z,30.92
2019-04-04T04:18:54.013Z,30.35
2019-04-04T04:21:22.275Z,30.90
2019-04-04T04:23:56.176Z,30.75
2019-04-04T04:26:25.261Z,31.85
2019-04-04T04:28:56.879Z,31.33
2019-04-04T04:31:27.263Z,33.70
2019-04-04T04:34:01.682Z,31.50
2019-04-04T04:36:31.944Z,30.92
2019-04-04T04:39:09.914Z,32.17
2019-04-04T04:41:41.859Z,32.67
2019-04-04T04:44:12.432Z,32.40
2019-04-04T04:46:42.790Z,32.05
2019-04-04T04:49:13.227Z,35.35
2019-04-04T04:51:44.312Z,34.48
2019-04-04T04:54:15.036Z,34.80
2019-04-04T04:56:45.336Z,36.70
2019-04-04T04:59:15.700Z,32.55
2019-04-04T05:01:45.993Z,34.88
2019-04-04T05:04:16.232Z,36.90
2019-04-04T05:06:46.609Z,36.65
2019-04-04T05:09:16.933Z,37.85
2019-04-04T05:11:48.094Z,34.38
2019-04-04T05:14:19.898Z,37.13
2019-04-04T05:16:50.301Z,36.08
2019-04-04T05:19:20.599Z,38.02
2019-04-04T05:21:50.860Z,40.20
2019-04-04T05:24:21.630Z,39.73
2019-04-04T05:26:57.345Z,37.50
2019-04-04T05:29:27.896Z,37.75
2019-04-04T05:31:58.256Z,36.17
2019-04-04T05:34:30.457Z,36.25
2019-04-04T05:37:00.870Z,37.23
2019-04-04T05:39:31.330Z,38.60
2019-04-04T05:42:01.763Z,37.58
2019-04-04T05:44:34.179Z,40.48
2019-04-04T05:47:04.465Z,40.48
2019-04-04T05:49:36.172Z,41.00
2019-04-04T05:52:08.937Z,42.35
2019-04-04T05:54:39.765Z,40.63
2019-04-04T05:57:10.348Z,45.90
2019-04-04T05:59:42.286Z,44.42
2019-04-04T06:02:13.493Z,43.10
2019-04-04T06:04:43.942Z,43.80
2019-04-04T06:07:16.350Z,44.90
2019-04-04T06:09:47.051Z,43.70
2019-04-04T06:12:18.438Z,46.25
2019-04-04T06:14:48.758Z,41.95
2019-04-04T06:17:19.442Z,40.28
2019-04-04T06:19:49.835Z,39.13
2019-04-04T06:22:21.117Z,39.80
2019-04-04T06:24:59.120Z,44.33
2019-04-04T06:27:27.810Z,44.40
2019-04-04T06:29:58.204Z,40.55
2019-04-04T06:32:29.049Z,38.58
2019-04-04T06:35:00.918Z,40.25
2019-04-04T06:37:34.076Z,39.90
2019-04-04T06:40:03.674Z,37.58
2019-04-04T06:42:36.027Z,35.35
2019-04-04T06:45:08.620Z,35.88
2019-04-04T06:47:39.230Z,35.90
2019-04-04T06:50:09.646Z,37.13
2019-04-04T06:52:40.747Z,39.23
2019-04-04T06:55:11.331Z,37.50
2019-04-04T06:57:41.739Z,36.60
2019-04-04T07:00:15.421Z,37.98
2019-04-04T07:02:47.207Z,36.15
2019-04-04T07:05:17.237Z,35.75
2019-04-04T07:07:47.749Z,37.73
2019-04-04T07:10:20.918Z,35.85
2019-04-04T07:12:50.499Z,37.78
2019-04-04T07:15:26.244Z,38.90
2019-04-04T07:17:56.754Z,43.20
2019-04-04T07:20:28.593Z,39.95
2019-04-04T07:22:59.476Z,37.40
2019-04-04T07:25:30.018Z,38.10
2019-04-04T07:28:00.567Z,39.45
2019-04-04T07:30:31.011Z,41.68
2019-04-04T07:33:01.453Z,45.83
2019-04-04T07:35:31.794Z,41.50
2019-04-04T07:38:02.447Z,44.63
2019-04-04T07:40:36.298Z,42.35
2019-04-04T07:43:05.164Z,40.73
2019-04-04T07:45:36.598Z,42.27
2019-04-04T07:48:07.062Z,43.65
2019-04-04T07:50:37.528Z,42.15
2019-04-04T07:53:08.526Z,39.20
2019-04-04T07:55:40.182Z,41.73
2019-04-04T07:58:11.438Z,42.45
2019-04-04T08:00:41.985Z,45.65
2019-04-04T08:03:12.425Z,45.05
2019-04-04T08:05:42.779Z,45.88
2019-04-04T08:08:13.408Z,43.68
2019-04-04T08:10:44.823Z,44.88
2019-04-04T08:13:15.556Z,43.05
2019-04-04T08:15:45.918Z,44.95
2019-04-04T08:18:16.461Z,45.95
2019-04-04T08:20:46.803Z,43.25
2019-04-04T08:23:17.581Z,40.60
2019-04-04T08:25:47.877Z,45.83
2019-04-04T08:28:18.307Z,45.63
2019-04-04T08:30:48.706Z,47.53
2019-04-04T08:33:19.235Z,44.80
2019-04-04T08:35:49.759Z,45.08
2019-04-04T08:38:20.445Z,43.33
2019-04-04T08:40:50.825Z,46.83
2019-04-04T08:43:21.280Z,42.73
2019-04-04T08:45:51.695Z,42.20
2019-04-04T08:48:22.038Z,41.80
2019-04-04T08:50:52.761Z,41.60
2019-04-04T08:53:23.256Z,39.15
2019-04-04T08:55:53.580Z,40.78
2019-04-04T08:58:24.038Z,46.00
2019-04-04T09:00:54.696Z,46.13
2019-04-04T09:03:25.328Z,42.85
2019-04-04T09:05:55.682Z,42.10
2019-04-04T09:08:26.333Z,42.98
2019-04-04T09:10:56.638Z,41.83
2019-04-04T09:13:27.341Z,38.55
2019-04-04T09:15:57.683Z,41.45
2019-04-04T09:18:28.312Z,39.13
2019-04-04T09:20:58.800Z,36.15
2019-04-04T09:23:29.932Z,34.80
2019-04-04T09:26:05.688Z,27.55
2019-04-04T09:28:32.697Z,21.10
2019-04-04T09:31:03.215Z,19.12
2019-04-04T09:33:33.735Z,16.90
2019-04-04T09:36:04.210Z,16.75
2019-04-04T09:38:34.916Z,13.25
2019-04-04T09:41:05.539Z,13.58
2019-04-04T09:43:36.110Z,15.05
2019-04-04T09:46:06.795Z,13.62
2019-04-04T09:48:37.453Z,14.58
2019-04-04T09:51:08.038Z,10.95
2019-04-04T09:53:52.366Z,11.97
2019-04-04T09:56:11.759Z,13.35
2019-04-04T09:58:42.155Z,11.25
2019-04-04T10:01:12.935Z,11.53
2019-04-04T10:03:43.490Z,11.30
2019-04-04T10:06:14.161Z,13.70
2019-04-04T10:08:44.932Z,9.53
2019-04-04T10:11:15.427Z,9.00
2019-04-04T10:13:46.108Z,7.95
2019-04-04T10:16:16.963Z,9.70
2019-04-04T10:18:47.581Z,7.97
2019-04-04T10:21:18.045Z,8.35
2019-04-04T10:23:48.772Z,7.22
2019-04-04T10:26:19.373Z,6.58
2019-04-04T10:28:49.960Z,7.40
2019-04-04T10:31:20.468Z,8.45
2019-04-04T10:33:51.186Z,6.55
2019-04-04T10:36:22.828Z,7.25
2019-04-04T10:38:53.226Z,7.65
2019-04-04T10:41:23.798Z,8.80
2019-04-04T10:43:54.462Z,8.08
2019-04-04T10:46:24.891Z,6.47
2019-04-04T10:48:56.455Z,6.08
2019-04-04T10:51:26.820Z,6.42
2019-04-04T10:53:57.803Z,7.05
2019-04-04T10:56:28.381Z,7.25
2019-04-04T10:58:59.048Z,5.20
2019-04-04T11:01:29.566Z,6.42
2019-04-04T11:04:00.041Z,6.22
2019-04-04T11:06:30.647Z,6.30
2019-04-04T11:09:01.091Z,5.60
2019-04-04T11:11:32.848Z,7.75
2019-04-04T11:14:03.808Z,5.53
2019-04-04T11:16:34.213Z,6.03
2019-04-04T11:19:04.845Z,11.12
2019-04-04T11:21:35.350Z,5.75
2019-04-04T11:24:06.417Z,6.05
2019-04-04T11:26:37.908Z,7.37
2019-04-04T11:29:10.774Z,6.03
2019-04-04T11:31:48.988Z,4.90
2019-04-04T11:34:23.794Z,6.17
2019-04-04T11:36:54.174Z,5.22
2019-04-04T11:39:32.793Z,8.25
2019-04-04T11:42:20.210Z,4.83
2019-04-04T11:44:54.844Z,5.22
2019-04-04T11:47:26.258Z,5.95
2019-04-04T11:49:56.911Z,8.65
2019-04-04T11:52:27.153Z,5.40
2019-04-04T11:55:02.137Z,5.50
2019-04-04T11:57:34.980Z,4.90
2019-04-04T12:00:06.479Z,5.30
2019-04-04T12:02:37.175Z,4.70
2019-04-04T12:05:11.798Z,4.97
2019-04-04T12:07:42.336Z,5.20
2019-04-04T12:10:19.995Z,4.40
2019-04-04T12:12:53.141Z,5.12
2019-04-04T12:15:23.511Z,4.42
2019-04-04T12:17:53.931Z,6.30
2019-04-04T12:20:24.454Z,7.58
2019-04-04T12:22:54.914Z,4.67
2019-04-04T12:25:25.824Z,4.78
2019-04-04T12:27:57.684Z,5.97
2019-04-04T12:30:30.916Z,3.92
2019-04-04T12:33:01.316Z,3.90
2019-04-04T12:35:32.736Z,4.78
2019-04-04T12:38:03.079Z,5.30
2019-04-04T12:40:33.589Z,6.37
2019-04-04T12:43:05.116Z,8.98
2019-04-04T12:45:35.485Z,5.50
2019-04-04T12:48:05.838Z,5.70
2019-04-04T12:50:36.668Z,5.17
2019-04-04T12:53:07.033Z,7.00
2019-04-04T12:55:37.584Z,5.75
2019-04-04T12:58:10.680Z,5.50
2019-04-04T13:00:40.111Z,5.55
2019-04-04T13:03:10.505Z,6.08
2019-04-04T13:05:41.988Z,5.58
2019-04-04T13:08:12.464Z,6.97
2019-04-04T13:10:43.007Z,5.25
2019-04-04T13:13:16.432Z,6.03
2019-04-04T13:15:47.042Z,5.55
2019-04-04T13:18:17.541Z,7.08
2019-04-04T13:20:48.523Z,6.92
2019-04-04T13:23:18.967Z,6.17
2019-04-04T13:25:49.344Z,4.92
2019-04-04T13:28:19.933Z,5.47
2019-04-04T13:30:50.555Z,5.20
2019-04-04T13:33:22.485Z,9.13
2019-04-04T13:35:56.154Z,4.37
2019-04-04T13:38:28.671Z,6.58
2019-04-04T13:40:59.463Z,5.80
2019-04-04T13:43:30.359Z,5.85
2019-04-04T13:46:00.892Z,4.35
2019-04-04T13:48:32.439Z,6.78
2019-04-04T13:51:03.648Z,5.08
2019-04-04T13:53:34.582Z,4.60
2019-04-04T13:56:08.608Z,4.03
2019-04-04T13:58:38.999Z,5.78
2019-04-04T14:01:12.917Z,6.05
2019-04-04T14:03:44.981Z,6.22
2019-04-04T14:06:18.011Z,4.30
2019-04-04T14:08:48.736Z,4.90
2019-04-04T14:11:22.501Z,4.47
2019-04-04T14:13:52.955Z,3.65
2019-04-04T14:16:23.793Z,5.37
2019-04-04T14:18:54.051Z,5.97
2019-04-04T14:21:24.975Z,4.60
2019-04-04T14:23:56.913Z,5.10
2019-04-04T14:26:31.131Z,4.70
2019-04-04T14:29:03.586Z,6.45
2019-04-04T14:31:39.346Z,5.75
2019-04-04T14:34:11.577Z,5.62
2019-04-04T14:36:42.827Z,5.20
2019-04-04T14:39:13.250Z,4.70
2019-04-04T14:41:46.674Z,5.42
2019-04-04T14:44:17.146Z,4.92
2019-04-04T14:46:48.337Z,4.80
2019-04-04T14:49:21.778Z,4.55
2019-04-04T14:51:52.969Z,4.78
2019-04-04T14:54:23.610Z,5.92
2019-04-04T14:56:54.348Z,6.53
2019-04-04T14:59:25.080Z,6.92
2019-04-04T15:01:55.546Z,6.70
2019-04-04T15:04:26.296Z,5.03
2019-04-04T15:06:58.877Z,4.87
2019-04-04T15:09:29.449Z,5.95
2019-04-04T15:12:00.102Z,5.75
2019-04-04T15:14:31.608Z,5.28
2019-04-04T15:17:02.186Z,7.40
2019-04-04T15:19:32.607Z,6.53
2019-04-04T15:22:03.732Z,6.87
2019-04-04T15:24:34.197Z,6.17
2019-04-04T15:27:04.899Z,6.90
2019-04-04T15:29:35.515Z,5.92
2019-04-04T15:32:06.099Z,5.35
2019-04-04T15:34:36.576Z,5.50
2019-04-04T15:37:07.208Z,7.28
2019-04-04T15:39:37.823Z,5.58
2019-04-04T15:42:08.879Z,6.15
2019-04-04T15:44:39.758Z,6.67
2019-04-04T15:47:10.368Z,5.05
2019-04-04T15:49:41.043Z,5.00
2019-04-04T15:52:11.736Z,4.83
2019-04-04T15:54:48.040Z,4.90
2019-04-04T15:57:18.423Z,4.08
2019-04-04T15:59:49.171Z,6.08
2019-04-04T16:02:19.923Z,5.45
2019-04-04T16:04:50.326Z,6.25
2019-04-04T16:07:21.019Z,5.67
2019-04-04T16:09:51.524Z,4.53
2019-04-04T16:12:22.071Z,4.67
2019-04-04T16:14:53.490Z,3.60
2019-04-04T16:17:24.036Z,4.37
2019-04-04T16:19:58.014Z,5.35
2019-04-04T16:22:32.175Z,5.42
2019-04-04T16:25:02.889Z,4.75
2019-04-04T16:27:33.445Z,5.20
2019-04-04T16:30:04.436Z,4.53
2019-04-04T16:32:37.915Z,4.15
2019-04-04T16:35:08.369Z,4.20
2019-04-04T16:37:39.068Z,5.45
2019-04-04T16:40:10.092Z,5.25
2019-04-04T16:42:41.844Z,5.37
2019-04-04T16:45:12.259Z,5.92
2019-04-04T16:47:57.961Z,5.33
2019-04-04T16:50:28.291Z,4.47
2019-04-04T16:52:58.826Z,3.87
2019-04-04T16:55:32.684Z,5.75
2019-04-04T16:58:03.260Z,4.80
2019-04-04T17:00:33.925Z,5.17
2019-04-04T17:03:04.349Z,6.85
2019-04-04T17:05:38.226Z,4.65
2019-04-04T17:08:08.730Z,4.17
2019-04-04T17:10:39.731Z,5.87
2019-04-04T17:13:11.400Z,5.40
2019-04-04T17:15:44.017Z,5.45
2019-04-04T17:18:14.923Z,4.55
2019-04-04T17:20:45.294Z,4.65
2019-04-04T17:23:16.641Z,4.92
2019-04-04T17:25:47.207Z,4.95
2019-04-04T17:28:20.307Z,4.97
2019-04-04T17:30:51.050Z,4.40
2019-04-04T17:33:21.962Z,4.92
2019-04-04T17:35:52.459Z,4.70
2019-04-04T17:38:23.179Z,5.87
2019-04-04T17:40:55.060Z,4.47
2019-04-04T17:43:26.656Z,4.10
2019-04-04T17:45:57.604Z,4.72
2019-04-04T17:48:31.488Z,4.53
2019-04-04T17:51:01.330Z,4.10
2019-04-04T17:53:32.351Z,5.50
2019-04-04T17:56:03.512Z,5.20
2019-04-04T17:58:34.512Z,4.30
2019-04-04T18:01:06.962Z,4.35
2019-04-04T18:03:39.498Z,4.37
2019-04-04T18:06:10.691Z,7.12
2019-04-04T18:08:41.495Z,4.72
2019-04-04T18:11:12.072Z,4.70
2019-04-04T18:13:42.895Z,4.95
2019-04-04T18:16:14.613Z,6.28
2019-04-04T18:18:45.394Z,5.37
2019-04-04T18:21:15.949Z,6.78
2019-04-04T18:23:47.110Z,5.28
2019-04-04T18:26:17.840Z,4.60
2019-04-04T18:28:48.340Z,5.70
2019-04-04T18:31:18.886Z,5.30
2019-04-04T18:33:49.920Z,5.95
2019-04-04T18:36:20.861Z,4.45
2019-04-04T18:38:51.475Z,6.85
2019-04-04T18:41:22.113Z,5.30
2019-04-04T18:43:53.658Z,4.80
2019-04-04T18:46:24.212Z,6.37
2019-04-04T18:48:54.854Z,4.42
2019-04-04T18:51:25.239Z,4.33
2019-04-04T18:53:55.971Z,5.75
2019-04-04T18:56:26.563Z,5.78
2019-04-04T18:58:56.825Z,5.08
2019-04-04T19:01:29.871Z,5.15
2019-04-04T19:04:00.331Z,5.50
2019-04-04T19:06:31.084Z,7.83
2019-04-04T19:09:14.086Z,7.62
2019-04-04T19:11:34.557Z,5.80
2019-04-04T19:14:06.534Z,5.12
2019-04-04T19:16:36.900Z,7.30
2019-04-04T19:19:09.864Z,6.05
2019-04-04T19:21:40.587Z,7.65
2019-04-04T19:24:11.134Z,6.03
2019-04-04T19:26:41.788Z,6.05
2019-04-04T19:29:12.785Z,5.60
2019-04-04T19:31:43.603Z,4.78
2019-04-04T19:34:14.089Z,8.18
2019-04-04T19:36:46.810Z,5.78
2019-04-04T19:39:18.107Z,4.95
2019-04-04T19:41:48.772Z,6.40
2019-04-04T19:44:20.131Z,5.28
2019-04-04T19:46:50.972Z,5.53
2019-04-04T19:49:21.429Z,5.17
2019-04-04T19:51:52.045Z,5.53
2019-04-04T19:54:22.390Z,5.67
2019-04-04T19:56:53.147Z,9.90
2019-04-04T19:59:23.679Z,6.35
2019-04-04T20:01:54.211Z,4.78
2019-04-04T20:04:24.836Z,5.42
2019-04-04T20:06:55.478Z,4.45
2019-04-04T20:09:26.889Z,5.10
2019-04-04T20:11:57.435Z,5.33
2019-04-04T20:14:29.114Z,5.60
2019-04-04T20:16:59.549Z,5.50
2019-04-04T20:19:31.310Z,5.53
2019-04-04T20:22:01.850Z,6.72
2019-04-04T20:24:32.820Z,5.22
2019-04-04T20:27:06.374Z,7.12
2019-04-04T20:29:36.907Z,6.33
2019-04-04T20:32:07.672Z,6.33
2019-04-04T20:34:38.080Z,7.08
2019-04-04T20:37:08.468Z,8.75
2019-04-04T20:39:41.102Z,7.15
2019-04-04T20:42:11.605Z,8.08
2019-04-04T20:44:43.063Z,7.58
2019-04-04T20:47:13.460Z,7.42
2019-04-04T20:49:44.150Z,8.20
2019-04-04T20:52:14.643Z,7.72
2019-04-04T20:54:46.288Z,8.45
2019-04-04T20:57:17.734Z,9.83
2019-04-04T20:59:48.474Z,9.40
2019-04-04T21:02:18.775Z,11.53
2019-04-04T21:04:50.517Z,9.98
2019-04-04T21:07:21.026Z,11.15
2019-04-04T21:09:51.548Z,9.60
2019-04-04T21:12:22.524Z,10.53
2019-04-04T21:14:54.336Z,8.90
2019-04-04T21:17:24.621Z,7.97
2019-04-04T21:19:55.180Z,9.73
2019-04-04T21:22:27.664Z,8.83
2019-04-04T21:24:58.088Z,8.93
2019-04-04T21:27:28.513Z,9.43
2019-04-04T21:29:59.038Z,9.13
2019-04-04T21:32:29.460Z,10.43
2019-04-04T21:34:59.894Z,10.68
2019-04-04T21:37:30.536Z,12.73
2019-04-04T21:40:01.505Z,11.03
2019-04-04T21:42:32.297Z,10.55
2019-04-04T21:45:02.646Z,11.30
2019-04-04T21:47:34.001Z,11.83
2019-04-04T21:50:04.551Z,11.70
2019-04-04T21:52:34.863Z,11.30
2019-04-04T21:55:07.656Z,13.00
2019-04-04T21:57:38.881Z,13.22
2019-04-04T22:00:10.209Z,11.08
2019-04-04T22:02:42.127Z,12.10
2019-04-04T22:05:12.962Z,14.23
2019-04-04T22:07:43.195Z,13.85
2019-04-04T22:10:13.635Z,14.53
2019-04-04T22:12:44.501Z,14.47
2019-04-04T22:15:46.162Z,13.90
2019-04-04T22:18:16.639Z,11.85
2019-04-04T22:20:47.605Z,18.65
2019-04-04T22:23:19.205Z,14.00
2019-04-04T22:25:50.084Z,16.27
2019-04-04T22:28:22.151Z,12.68
2019-04-04T22:30:52.566Z,12.95
2019-04-04T22:33:22.844Z,15.00
2019-04-04T22:35:53.380Z,12.03
2019-04-04T22:38:23.692Z,21.97
2019-04-04T22:40:54.676Z,13.45
2019-04-04T22:43:25.152Z,16.50
2019-04-04T22:45:55.558Z,14.25
2019-04-04T22:48:25.998Z,11.65
2019-04-04T22:50:57.001Z,13.08
2019-04-04T22:53:27.891Z,13.70
2019-04-04T22:55:58.427Z,14.50
2019-04-04T22:58:29.083Z,13.43
2019-04-04T23:00:59.665Z,15.43
2019-04-04T23:03:30.119Z,13.50
2019-04-04T23:06:01.196Z,13.50
2019-04-04T23:08:31.815Z,13.88
2019-04-04T23:11:02.391Z,15.50
2019-04-04T23:13:32.725Z,14.30
2019-04-04T23:16:03.336Z,13.08
2019-04-04T23:18:33.578Z,13.00
2019-04-04T23:21:04.345Z,15.28
2019-04-04T23:23:34.996Z,14.55
2019-04-04T23:26:05.410Z,16.25
2019-04-04T23:28:35.797Z,14.43
2019-04-04T23:31:06.473Z,16.42
2019-04-04T23:33:36.961Z,13.95
2019-04-04T23:36:07.367Z,17.62
2019-04-04T23:38:37.669Z,17.52
2019-04-04T23:41:08.038Z,16.37
2019-04-04T23:43:38.690Z,14.63
2019-04-04T23:46:09.140Z,23.55
2019-04-04T23:48:39.685Z,17.32
2019-04-04T23:51:10.733Z,20.50
2019-04-04T23:53:41.301Z,18.02
2019-04-04T23:56:11.750Z,19.00
2019-04-04T23:58:42.779Z,20.80
